createdAt,value
2017-08-23T00:01:07.849Z,11.00
2017-08-23T00:03:35.471Z,11.00
2017-08-23T00:06:03.029Z,11.00
2017-08-23T00:08:30.551Z,10.90
2017-08-23T00:10:58.143Z,11.00
2017-08-23T00:13:25.665Z,11.00
2017-08-23T00:15:53.189Z,10.90
2017-08-23T00:18:20.826Z,10.90
2017-08-23T00:20:48.423Z,10.80
2017-08-23T00:23:16.725Z,10.70
2017-08-23T00:25:44.354Z,10.70
2017-08-23T00:28:11.887Z,10.70
2017-08-23T00:30:39.422Z,10.70
2017-08-23T00:33:07.008Z,10.60
2017-08-23T00:35:34.535Z,10.60
2017-08-23T00:38:02.121Z,10.60
2017-08-23T00:40:29.678Z,10.50
2017-08-23T00:42:57.207Z,10.50
2017-08-23T00:45:24.804Z,10.50
2017-08-23T00:47:52.458Z,10.50
2017-08-23T00:50:20.061Z,10.50
2017-08-23T00:52:47.690Z,10.50
2017-08-23T00:55:15.337Z,10.60
2017-08-23T00:57:42.866Z,10.70
2017-08-23T01:00:10.393Z,10.70
2017-08-23T01:02:38.021Z,10.80
2017-08-23T01:05:05.537Z,10.90
2017-08-23T01:07:33.153Z,10.90
2017-08-23T01:10:00.695Z,10.90
2017-08-23T01:12:28.225Z,10.90
2017-08-23T01:14:55.757Z,10.80
2017-08-23T01:17:23.305Z,10.80
2017-08-23T01:19:50.842Z,10.80
2017-08-23T01:22:18.371Z,10.70
2017-08-23T01:24:45.921Z,10.60
2017-08-23T01:27:14.208Z,10.50
2017-08-23T01:29:41.793Z,10.50
2017-08-23T01:32:10.285Z,10.50
2017-08-23T01:34:37.818Z,10.40
2017-08-23T01:37:05.346Z,10.40
2017-08-23T01:39:32.890Z,10.30
2017-08-23T01:42:00.434Z,10.30
2017-08-23T01:44:27.974Z,10.20
2017-08-23T01:46:55.522Z,10.20
2017-08-23T01:49:23.094Z,10.20
2017-08-23T01:51:50.658Z,10.20
2017-08-23T01:54:18.201Z,10.10
2017-08-23T01:56:45.773Z,10.10
2017-08-23T01:59:13.329Z,10.10
2017-08-23T02:01:40.870Z,10.10
2017-08-23T02:04:08.484Z,10.10
2017-08-23T02:06:36.121Z,10.10
2017-08-23T02:09:03.657Z,10.10
2017-08-23T02:11:31.185Z,10.10
2017-08-23T02:13:58.805Z,10.10
2017-08-23T02:16:26.457Z,10.10
2017-08-23T02:18:53.981Z,10.10
2017-08-23T02:21:21.508Z,10.10
2017-08-23T02:23:49.054Z,10.10
2017-08-23T02:26:16.595Z,10.10
2017-08-23T02:28:44.143Z,10.10
2017-08-23T02:31:11.698Z,10.10
2017-08-23T02:33:39.278Z,10.10
2017-08-23T02:36:06.839Z,10.10
2017-08-23T02:38:34.490Z,10.20
2017-08-23T02:41:02.015Z,10.20
2017-08-23T02:43:29.550Z,10.20
2017-08-23T02:45:57.210Z,10.20
2017-08-23T02:48:24.736Z,10.10
2017-08-23T02:50:52.294Z,10.00
2017-08-23T02:53:19.838Z,10.00
2017-08-23T02:55:47.418Z,9.90
2017-08-23T02:58:14.946Z,9.90
2017-08-23T03:00:42.485Z,9.80
2017-08-23T03:03:10.101Z,9.80
2017-08-23T03:05:37.613Z,9.70
2017-08-23T03:08:05.145Z,9.70
2017-08-23T03:10:32.773Z,9.70
2017-08-23T03:13:00.327Z,9.60
2017-08-23T03:15:28.646Z,9.50
2017-08-23T03:17:56.278Z,9.50
2017-08-23T03:20:23.929Z,9.50
2017-08-23T03:22:51.465Z,9.50
2017-08-23T03:25:18.981Z,9.50
2017-08-23T03:27:46.507Z,9.50
2017-08-23T03:30:14.170Z,9.50
2017-08-23T03:32:41.732Z,9.40
2017-08-23T03:35:09.293Z,9.40
2017-08-23T03:37:36.828Z,9.40
2017-08-23T03:40:04.409Z,9.40
2017-08-23T03:42:31.934Z,9.40
2017-08-23T03:45:00.348Z,9.40
2017-08-23T03:47:27.864Z,9.30
2017-08-23T03:49:55.474Z,9.40
2017-08-23T03:52:23.023Z,9.40
2017-08-23T03:54:50.546Z,9.30
2017-08-23T03:57:18.978Z,9.30
2017-08-23T03:59:46.526Z,9.30
2017-08-23T04:02:14.086Z,9.30
2017-08-23T04:04:41.610Z,9.30
2017-08-23T04:07:09.913Z,9.30
2017-08-23T04:09:37.454Z,9.30
2017-08-23T04:12:05.047Z,9.20
2017-08-23T04:14:32.581Z,9.30
2017-08-23T04:17:00.165Z,9.20
2017-08-23T04:19:27.719Z,9.20
2017-08-23T04:21:55.261Z,9.20
2017-08-23T04:24:22.773Z,9.20
2017-08-23T04:26:50.403Z,9.10
2017-08-23T04:29:17.957Z,9.10
2017-08-23T04:31:45.478Z,9.10
2017-08-23T04:34:13.008Z,9.10
2017-08-23T04:36:40.553Z,9.20
2017-08-23T04:39:08.072Z,9.20
2017-08-23T04:41:35.661Z,9.30
2017-08-23T04:44:03.223Z,9.30
2017-08-23T04:46:30.778Z,9.30
2017-08-23T04:48:58.308Z,9.30
2017-08-23T04:51:25.851Z,9.30
2017-08-23T04:53:54.151Z,9.40
2017-08-23T04:56:21.734Z,9.40
2017-08-23T04:58:49.270Z,9.40
2017-08-23T05:01:16.788Z,9.50
2017-08-23T05:03:44.306Z,9.50
2017-08-23T05:06:11.872Z,9.60
2017-08-23T05:08:39.429Z,9.70
2017-08-23T05:11:06.945Z,9.70
2017-08-23T05:13:34.485Z,9.80
2017-08-23T05:16:02.010Z,9.90
2017-08-23T05:18:29.572Z,10.00
2017-08-23T05:20:57.113Z,10.10
2017-08-23T05:23:24.695Z,10.10
2017-08-23T05:25:52.255Z,10.20
2017-08-23T05:28:19.807Z,10.30
2017-08-23T05:30:47.333Z,10.50
2017-08-23T05:33:14.857Z,10.60
2017-08-23T05:35:42.503Z,10.70
2017-08-23T05:38:10.050Z,10.80
2017-08-23T05:40:37.574Z,10.90
2017-08-23T05:43:05.168Z,11.00
2017-08-23T05:45:32.694Z,11.20
2017-08-23T05:48:00.212Z,11.30
2017-08-23T05:50:27.758Z,11.40
2017-08-23T05:52:55.293Z,11.60
2017-08-23T05:55:22.817Z,11.70
2017-08-23T05:57:50.393Z,11.90
2017-08-23T06:00:17.916Z,12.00
2017-08-23T06:02:45.446Z,12.10
2017-08-23T06:05:12.994Z,12.30
2017-08-23T06:07:40.522Z,12.50
2017-08-23T06:10:09.361Z,12.50
2017-08-23T06:12:36.990Z,12.60
2017-08-23T06:15:04.585Z,12.70
2017-08-23T06:17:32.137Z,12.80
2017-08-23T06:19:59.693Z,12.90
2017-08-23T06:22:27.222Z,13.10
2017-08-23T06:24:54.765Z,13.20
2017-08-23T06:27:22.309Z,13.30
2017-08-23T06:29:49.933Z,13.40
2017-08-23T06:32:17.497Z,13.60
2017-08-23T06:34:45.119Z,13.70
2017-08-23T06:37:12.641Z,13.80
2017-08-23T06:39:40.165Z,13.90
2017-08-23T06:42:07.740Z,14.00
2017-08-23T06:44:35.261Z,14.10
2017-08-23T06:47:02.780Z,14.20
2017-08-23T06:49:30.316Z,14.30
2017-08-23T06:51:57.874Z,14.40
2017-08-23T06:54:25.392Z,14.40
2017-08-23T06:56:52.931Z,14.40
2017-08-23T06:59:21.165Z,14.40
2017-08-23T07:01:48.730Z,14.50
2017-08-23T07:04:16.286Z,14.60
2017-08-23T07:06:43.810Z,14.60
2017-08-23T07:09:11.402Z,14.70
2017-08-23T07:11:38.985Z,14.90
2017-08-23T07:14:07.514Z,15.10
2017-08-23T07:16:35.045Z,15.20
2017-08-23T07:19:02.579Z,15.40
2017-08-23T07:21:30.103Z,15.50
2017-08-23T07:23:57.621Z,15.60
2017-08-23T07:26:25.236Z,15.60
2017-08-23T07:28:52.753Z,15.60
2017-08-23T07:31:20.277Z,15.80
2017-08-23T07:33:47.811Z,15.90
2017-08-23T07:36:15.325Z,16.00
2017-08-23T07:38:42.941Z,16.20
2017-08-23T07:41:10.501Z,16.30
2017-08-23T07:43:38.023Z,16.30
2017-08-23T07:46:05.623Z,16.40
2017-08-23T07:48:33.546Z,16.60
2017-08-23T07:51:01.866Z,16.80
2017-08-23T07:53:29.420Z,16.70
2017-08-23T07:55:56.983Z,16.90
2017-08-23T07:58:24.504Z,17.00
2017-08-23T08:00:52.809Z,17.20
2017-08-23T08:03:20.350Z,17.20
2017-08-23T08:05:47.878Z,17.30
2017-08-23T08:08:15.422Z,17.50
2017-08-23T08:10:42.960Z,17.60
2017-08-23T08:13:10.518Z,17.60
2017-08-23T08:15:38.075Z,17.70
2017-08-23T08:18:05.634Z,17.80
2017-08-23T08:20:33.226Z,17.90
2017-08-23T08:23:00.750Z,18.00
2017-08-23T08:25:28.625Z,18.10
2017-08-23T08:27:56.152Z,18.00
2017-08-23T08:30:23.681Z,18.10
2017-08-23T08:32:51.305Z,18.10
2017-08-23T08:35:18.825Z,18.30
2017-08-23T08:37:46.345Z,18.40
2017-08-23T08:40:13.987Z,18.50
2017-08-23T08:42:41.516Z,18.60
2017-08-23T08:45:09.045Z,18.80
2017-08-23T08:47:36.657Z,18.80
2017-08-23T08:50:04.228Z,18.80
2017-08-23T08:52:31.767Z,18.90
2017-08-23T08:54:59.329Z,18.90
2017-08-23T08:57:26.893Z,18.90
2017-08-23T08:59:54.423Z,19.00
2017-08-23T09:02:22.014Z,19.10
2017-08-23T09:04:49.544Z,19.10
2017-08-23T09:07:17.083Z,19.20
2017-08-23T09:09:44.628Z,19.00
2017-08-23T09:12:12.258Z,19.20
2017-08-23T09:14:39.786Z,19.40
2017-08-23T09:17:07.366Z,19.40
2017-08-23T09:19:34.898Z,19.40
2017-08-23T09:22:02.510Z,19.50
2017-08-23T09:24:30.049Z,19.70
2017-08-23T09:26:57.573Z,19.80
2017-08-23T09:29:25.093Z,19.70
2017-08-23T09:31:52.665Z,19.90
2017-08-23T09:34:20.198Z,19.80
2017-08-23T09:36:47.750Z,20.10
2017-08-23T09:39:15.281Z,20.30
2017-08-23T09:41:42.865Z,20.50
2017-08-23T09:44:10.401Z,20.60
2017-08-23T09:46:37.985Z,20.80
2017-08-23T09:49:05.517Z,21.00
2017-08-23T09:51:33.105Z,21.10
2017-08-23T09:54:00.645Z,21.00
2017-08-23T09:56:28.333Z,21.00
2017-08-23T09:58:55.863Z,21.30
2017-08-23T10:01:23.451Z,21.40
2017-08-23T10:03:51.004Z,21.40
2017-08-23T10:06:18.665Z,21.40
2017-08-23T10:08:47.148Z,21.30
2017-08-23T10:11:15.709Z,21.20
2017-08-23T10:13:43.234Z,21.30
2017-08-23T10:16:10.789Z,21.60
2017-08-23T10:18:38.410Z,21.90
2017-08-23T10:21:05.973Z,22.20
2017-08-23T10:23:33.514Z,22.40
2017-08-23T10:26:01.044Z,22.40
2017-08-23T10:28:28.769Z,22.30
2017-08-23T10:30:56.424Z,22.40
2017-08-23T10:33:23.950Z,22.80
2017-08-23T10:35:51.478Z,23.10
2017-08-23T10:38:19.094Z,23.50
2017-08-23T10:40:46.657Z,23.60
2017-08-23T10:43:14.205Z,23.80
2017-08-23T10:45:41.745Z,24.10
2017-08-23T10:48:09.281Z,24.60
2017-08-23T10:50:36.901Z,25.00
2017-08-23T10:53:04.449Z,25.40
2017-08-23T10:55:31.963Z,25.90
2017-08-23T10:57:59.483Z,26.50
2017-08-23T11:00:27.012Z,27.00
2017-08-23T11:02:54.531Z,26.80
2017-08-23T11:05:22.053Z,26.90
2017-08-23T11:07:49.603Z,26.90
2017-08-23T11:10:17.174Z,27.20
2017-08-23T11:12:44.908Z,29.00
2017-08-23T11:15:12.486Z,30.10
2017-08-23T11:17:40.011Z,31.00
2017-08-23T11:20:08.297Z,33.10
2017-08-23T11:22:35.886Z,33.00
2017-08-23T11:25:03.449Z,32.10
2017-08-23T11:27:31.028Z,32.60
2017-08-23T11:29:58.560Z,33.70
2017-08-23T11:32:26.073Z,34.60
2017-08-23T11:34:53.593Z,34.40
2017-08-23T11:37:21.209Z,35.50
2017-08-23T11:39:48.735Z,34.30
2017-08-23T11:42:16.250Z,35.40
2017-08-23T11:44:43.781Z,35.80
2017-08-23T11:47:11.375Z,36.10
2017-08-23T11:49:38.937Z,37.30
2017-08-23T11:52:06.469Z,37.80
2017-08-23T11:54:34.057Z,37.00
2017-08-23T11:57:01.580Z,37.40
2017-08-23T11:59:29.174Z,39.00
2017-08-23T12:01:56.705Z,38.60
2017-08-23T12:04:24.332Z,38.50
2017-08-23T12:06:51.866Z,39.50
2017-08-23T12:09:19.388Z,39.30
2017-08-23T12:11:46.922Z,39.80
2017-08-23T12:14:14.535Z,41.20
2017-08-23T12:16:42.102Z,40.90
2017-08-23T12:19:09.662Z,40.90
2017-08-23T12:21:37.206Z,41.70
2017-08-23T12:24:04.730Z,42.40
2017-08-23T12:26:32.454Z,41.30
2017-08-23T12:29:00.094Z,39.60
2017-08-23T12:31:27.617Z,40.30
2017-08-23T12:33:55.141Z,42.00
2017-08-23T12:36:22.681Z,40.90
2017-08-23T12:38:50.205Z,42.20
2017-08-23T12:41:17.722Z,40.60
2017-08-23T12:43:45.359Z,41.30
2017-08-23T12:46:12.913Z,42.90
2017-08-23T12:48:40.469Z,43.00
2017-08-23T12:51:08.001Z,43.00
2017-08-23T12:53:35.577Z,41.80
2017-08-23T12:56:03.153Z,41.00
2017-08-23T12:58:30.688Z,41.40
2017-08-23T13:00:58.371Z,42.30
2017-08-23T13:03:25.900Z,42.10
2017-08-23T13:05:53.432Z,41.80
2017-08-23T13:08:20.946Z,41.50
2017-08-23T13:10:48.508Z,43.80
2017-08-23T13:13:16.071Z,44.20
2017-08-23T13:15:43.628Z,43.10
2017-08-23T13:18:11.154Z,43.90
2017-08-23T13:20:38.853Z,42.90
2017-08-23T13:23:06.376Z,44.00
2017-08-23T13:25:33.902Z,44.30
2017-08-23T13:28:01.526Z,40.60
2017-08-23T13:30:29.090Z,40.60
2017-08-23T13:32:56.645Z,42.10
2017-08-23T13:35:24.206Z,41.30
2017-08-23T13:37:51.767Z,42.40
2017-08-23T13:40:19.295Z,44.30
2017-08-23T13:42:46.886Z,43.90
2017-08-23T13:45:14.449Z,42.00
2017-08-23T13:47:41.969Z,44.30
2017-08-23T13:50:09.561Z,43.50
2017-08-23T13:52:37.081Z,43.90
2017-08-23T13:55:04.787Z,44.10
2017-08-23T13:57:32.349Z,44.30
2017-08-23T13:59:59.906Z,42.90
2017-08-23T14:02:27.472Z,43.50
2017-08-23T14:04:55.137Z,44.00
2017-08-23T14:07:22.691Z,42.10
2017-08-23T14:09:50.215Z,42.60
2017-08-23T14:12:17.748Z,43.70
2017-08-23T14:14:45.284Z,44.30
2017-08-23T14:17:12.814Z,43.00
2017-08-23T14:19:40.388Z,43.10
2017-08-23T14:22:07.909Z,40.70
2017-08-23T14:24:35.822Z,40.00
2017-08-23T14:27:03.397Z,40.10
2017-08-23T14:29:30.937Z,39.30
2017-08-23T14:31:58.462Z,39.70
2017-08-23T14:34:26.005Z,40.20
2017-08-23T14:36:53.606Z,39.20
2017-08-23T14:39:21.134Z,39.20
2017-08-23T14:41:48.677Z,39.10
2017-08-23T14:44:16.206Z,40.30
2017-08-23T14:46:43.745Z,41.10
2017-08-23T14:49:11.309Z,39.70
2017-08-23T14:51:38.866Z,38.70
2017-08-23T14:54:06.381Z,40.20
2017-08-23T14:56:34.801Z,38.70
2017-08-23T14:59:02.317Z,38.70
2017-08-23T15:01:29.932Z,38.10
2017-08-23T15:03:57.474Z,37.90
2017-08-23T15:06:25.000Z,38.00
2017-08-23T15:08:52.526Z,36.80
2017-08-23T15:11:20.069Z,36.60
2017-08-23T15:13:47.620Z,37.00
2017-08-23T15:16:15.140Z,35.10
2017-08-23T15:18:42.741Z,33.50
2017-08-23T15:21:10.270Z,32.60
2017-08-23T15:23:37.862Z,31.40
2017-08-23T15:26:05.398Z,30.30
2017-08-23T15:28:32.926Z,29.70
2017-08-23T15:31:00.538Z,28.70
2017-08-23T15:33:28.078Z,28.60
2017-08-23T15:35:55.598Z,28.40
2017-08-23T15:38:23.118Z,28.00
2017-08-23T15:40:50.665Z,27.80
2017-08-23T15:43:18.185Z,27.50
2017-08-23T15:45:46.378Z,27.40
2017-08-23T15:48:13.973Z,27.30
2017-08-23T15:50:41.521Z,27.40
2017-08-23T15:53:09.413Z,27.10
2017-08-23T15:55:36.951Z,27.20
2017-08-23T15:58:04.517Z,26.80
2017-08-23T16:00:32.069Z,27.00
2017-08-23T16:02:59.611Z,27.00
2017-08-23T16:05:27.187Z,26.70
2017-08-23T16:07:54.749Z,26.60
2017-08-23T16:10:22.306Z,26.50
2017-08-23T16:12:49.973Z,26.70
2017-08-23T16:15:17.533Z,26.70
2017-08-23T16:17:45.076Z,26.60
2017-08-23T16:20:12.650Z,26.50
2017-08-23T16:22:40.206Z,26.60
2017-08-23T16:25:07.773Z,26.90
2017-08-23T16:27:35.341Z,26.70
2017-08-23T16:30:02.906Z,26.50
2017-08-23T16:32:30.546Z,26.20
2017-08-23T16:34:58.108Z,26.00
2017-08-23T16:37:25.674Z,25.80
2017-08-23T16:39:53.235Z,25.40
2017-08-23T16:42:20.758Z,25.30
2017-08-23T16:44:48.351Z,25.30
2017-08-23T16:47:15.894Z,25.10
2017-08-23T16:49:43.414Z,24.90
2017-08-23T16:52:10.930Z,24.80
2017-08-23T16:54:38.486Z,24.60
2017-08-23T16:57:06.046Z,24.50
2017-08-23T16:59:33.607Z,24.20
2017-08-23T17:02:01.164Z,24.00
2017-08-23T17:04:28.824Z,24.00
2017-08-23T17:06:57.209Z,23.80
2017-08-23T17:09:24.766Z,23.70
2017-08-23T17:11:52.285Z,23.70
2017-08-23T17:14:19.801Z,23.70
2017-08-23T17:16:47.548Z,23.50
2017-08-23T17:19:15.081Z,23.40
2017-08-23T17:21:43.289Z,23.40
2017-08-23T17:24:10.843Z,23.30
2017-08-23T17:26:38.845Z,23.20
2017-08-23T17:29:08.699Z,23.20
2017-08-23T17:31:36.249Z,23.10
2017-08-23T17:34:03.780Z,23.00
2017-08-23T17:36:31.498Z,22.80
2017-08-23T17:38:59.064Z,22.70
2017-08-23T17:41:26.594Z,22.50
2017-08-23T17:43:54.172Z,22.30
2017-08-23T17:46:22.060Z,22.10
2017-08-23T17:48:49.576Z,22.00
2017-08-23T17:51:17.178Z,21.90
2017-08-23T17:53:44.728Z,21.80
2017-08-23T17:56:12.295Z,21.60
2017-08-23T17:58:39.850Z,21.50
2017-08-23T18:01:07.394Z,21.30
2017-08-23T18:03:34.910Z,21.20
2017-08-23T18:06:02.430Z,21.00
2017-08-23T18:08:30.010Z,20.90
2017-08-23T18:10:57.529Z,20.80
2017-08-23T18:13:25.057Z,20.60
2017-08-23T18:15:53.305Z,20.50
2017-08-23T18:18:20.825Z,20.40
2017-08-23T18:20:48.521Z,20.30
2017-08-23T18:23:16.083Z,20.20
2017-08-23T18:25:43.637Z,20.10
2017-08-23T18:28:11.189Z,19.90
2017-08-23T18:30:38.767Z,19.80
2017-08-23T18:33:06.305Z,19.70
2017-08-23T18:35:33.909Z,19.60
2017-08-23T18:38:01.488Z,19.50
2017-08-23T18:40:29.061Z,19.40
2017-08-23T18:42:56.893Z,19.30
2017-08-23T18:45:25.242Z,19.20
2017-08-23T18:47:53.514Z,19.10
2017-08-23T18:50:21.266Z,19.00
2017-08-23T18:52:48.930Z,18.90
2017-08-23T18:55:16.462Z,18.80
2017-08-23T18:57:44.031Z,18.80
2017-08-23T19:00:11.632Z,18.70
2017-08-23T19:02:39.373Z,18.70
2017-08-23T19:05:07.038Z,18.60
2017-08-23T19:07:34.690Z,18.50
2017-08-23T19:10:02.239Z,18.40
2017-08-23T19:12:29.785Z,18.40
2017-08-23T19:14:57.422Z,18.30
2017-08-23T19:17:24.958Z,18.30
2017-08-23T19:19:52.500Z,18.20
2017-08-23T19:22:20.583Z,18.20
2017-08-23T19:24:48.256Z,18.20
2017-08-23T19:27:15.883Z,18.10
2017-08-23T19:29:44.055Z,18.00
2017-08-23T19:32:11.602Z,17.90
2017-08-23T19:34:39.393Z,17.90
2017-08-23T19:37:07.250Z,17.80
2017-08-23T19:39:34.960Z,17.80
2017-08-23T19:42:02.591Z,17.70
2017-08-23T19:44:30.238Z,17.60
2017-08-23T19:46:57.761Z,17.50
2017-08-23T19:49:25.367Z,17.40
2017-08-23T19:51:53.016Z,17.30
2017-08-23T19:54:20.576Z,17.30
2017-08-23T19:56:48.108Z,17.20
2017-08-23T19:59:15.702Z,17.10
2017-08-23T20:01:43.640Z,17.00
2017-08-23T20:04:11.212Z,16.90
2017-08-23T20:06:38.785Z,16.90
2017-08-23T20:09:06.350Z,16.80
2017-08-23T20:11:33.970Z,16.70
2017-08-23T20:14:01.548Z,16.70
2017-08-23T20:16:29.130Z,16.60
2017-08-23T20:18:56.689Z,16.60
2017-08-23T20:21:24.350Z,16.50
2017-08-23T20:23:51.896Z,16.40
2017-08-23T20:26:19.465Z,16.40
2017-08-23T20:28:47.017Z,16.40
2017-08-23T20:31:14.543Z,16.30
2017-08-23T20:33:42.329Z,16.20
2017-08-23T20:36:10.013Z,16.20
2017-08-23T20:38:37.541Z,16.10
2017-08-23T20:41:05.226Z,16.10
2017-08-23T20:43:33.032Z,16.00
2017-08-23T20:46:00.561Z,16.00
2017-08-23T20:48:28.124Z,16.00
2017-08-23T20:50:55.776Z,15.90
2017-08-23T20:53:23.342Z,15.90
2017-08-23T20:55:50.874Z,15.80
2017-08-23T20:58:18.466Z,15.80
2017-08-23T21:00:45.990Z,15.70
2017-08-23T21:03:13.575Z,15.70
2017-08-23T21:05:41.132Z,15.60
2017-08-23T21:08:09.314Z,15.60
2017-08-23T21:10:36.982Z,15.50
2017-08-23T21:13:04.534Z,15.50
2017-08-23T21:15:32.098Z,15.50
2017-08-23T21:17:59.627Z,15.40
2017-08-23T21:20:27.174Z,15.40
2017-08-23T21:22:55.526Z,15.30
2017-08-23T21:25:23.053Z,15.30
2017-08-23T21:27:50.591Z,15.30
2017-08-23T21:30:18.169Z,15.30
2017-08-23T21:32:46.305Z,15.20
2017-08-23T21:35:13.845Z,15.20
2017-08-23T21:37:41.461Z,15.10
2017-08-23T21:40:09.017Z,15.10
2017-08-23T21:42:36.574Z,15.10
2017-08-23T21:45:04.093Z,15.00
2017-08-23T21:47:31.635Z,15.00
2017-08-23T21:49:59.265Z,15.00
2017-08-23T21:52:26.816Z,14.90
2017-08-23T21:54:54.375Z,14.90
2017-08-23T21:57:21.908Z,14.90
2017-08-23T21:59:49.434Z,14.80
2017-08-23T22:02:17.062Z,14.80
2017-08-23T22:04:44.612Z,14.70
2017-08-23T22:07:12.126Z,14.70
2017-08-23T22:09:39.736Z,14.70
2017-08-23T22:12:07.270Z,14.70
2017-08-23T22:14:34.859Z,14.60
2017-08-23T22:17:02.418Z,14.60
2017-08-23T22:19:29.973Z,14.60
2017-08-23T22:21:57.492Z,14.50
2017-08-23T22:24:25.089Z,14.40
2017-08-23T22:26:52.631Z,14.40
2017-08-23T22:29:20.313Z,14.40
2017-08-23T22:31:47.873Z,14.40
2017-08-23T22:34:15.433Z,14.40
2017-08-23T22:36:42.957Z,14.30
2017-08-23T22:39:11.269Z,14.30
2017-08-23T22:41:38.829Z,14.30
2017-08-23T22:44:06.385Z,14.30
2017-08-23T22:46:33.917Z,14.20
2017-08-23T22:49:02.225Z,14.10
2017-08-23T22:51:29.758Z,14.10
2017-08-23T22:53:58.084Z,14.00
2017-08-23T22:56:25.731Z,14.00
2017-08-23T22:58:53.258Z,14.00
2017-08-23T23:01:20.788Z,14.00
2017-08-23T23:03:48.405Z,14.00
2017-08-23T23:06:15.966Z,13.90
2017-08-23T23:08:43.494Z,13.90
2017-08-23T23:11:11.086Z,13.90
2017-08-23T23:13:38.614Z,13.90
2017-08-23T23:16:06.209Z,13.80
2017-08-23T23:18:33.750Z,13.80
2017-08-23T23:21:01.322Z,13.80
2017-08-23T23:23:28.886Z,13.80
2017-08-23T23:25:56.539Z,13.80
2017-08-23T23:28:24.108Z,13.70
2017-08-23T23:30:51.638Z,13.70
2017-08-23T23:33:19.169Z,13.70
2017-08-23T23:35:46.693Z,13.60
2017-08-23T23:38:14.233Z,13.70
2017-08-23T23:40:41.769Z,13.60
2017-08-23T23:43:09.296Z,13.60
2017-08-23T23:45:36.931Z,13.60
2017-08-23T23:48:04.473Z,13.60
2017-08-23T23:50:32.037Z,13.60
2017-08-23T23:52:59.596Z,13.70
2017-08-23T23:55:27.152Z,13.60
2017-08-23T23:57:54.674Z,13.60
